Time;durP1;ratioP1;P1;durP2;ratioP2;P2;SDS_P1;SDS_P2;PMS_P1;PMS_P2;Temp;Humidity;BMP_temperature;BMP_pressure;BME280_temperature;BME280_humidity;BME280_pressure;Samples;Min_cycle;Max_cycle;Signal;HPM_P1;HPM_P2
2022/05/26 00:00:34;;;;;;;18.80;5.40;;;;;;;14.22;47.22;99464.19;25098;1314;3054546;-63
2022/05/26 00:03:03;;;;;;;25.20;5.50;;;;;;;14.21;47.04;99468.02;25113;1315;3027296;-62
2022/05/26 00:05:33;;;;;;;20.40;7.10;;;;;;;14.10;47.74;99464.41;25091;1315;3026833;-61
2022/05/26 00:08:02;;;;;;;20.70;5.70;;;;;;;14.02;47.83;99467.82;25129;1316;3026924;-61
2022/05/26 00:10:34;;;;;;;16.50;5.30;;;;;;;13.96;48.04;99466.88;25135;1318;3052593;-62
2022/05/26 00:13:05;;;;;;;15.90;5.30;;;;;;;13.99;47.85;99468.79;25072;1316;3026870;-62
2022/05/26 00:15:35;;;;;;;21.60;5.30;;;;;;;13.97;48.19;99468.38;25052;1315;3028750;-61
2022/05/26 00:18:04;;;;;;;13.40;4.60;;;;;;;13.90;48.57;99462.95;25070;1315;3027344;-61
2022/05/26 00:20:34;;;;;;;14.10;4.70;;;;;;;13.79;48.99;99459.52;25034;1315;3026276;-62
2022/05/26 00:23:03;;;;;;;15.10;4.70;;;;;;;13.88;48.70;99455.80;25112;1315;3026865;-60
2022/05/26 00:25:33;;;;;;;10.30;4.50;;;;;;;13.78;49.15;99452.87;25048;1315;3055413;-63
2022/05/26 00:28:03;;;;;;;12.10;4.60;;;;;;;13.81;48.79;99449.17;25057;1315;3026453;-61
2022/05/26 00:30:33;;;;;;;20.80;5.50;;;;;;;13.77;49.05;99452.25;25068;1315;3027563;-60
2022/05/26 00:33:02;;;;;;;19.10;5.40;;;;;;;13.64;49.66;99443.52;25104;1315;3027474;-61
2022/05/26 00:35:34;;;;;;;16.10;4.10;;;;;;;13.79;48.75;99443.17;25078;1315;3026905;-62
2022/05/26 00:38:04;;;;;;;12.30;4.80;;;;;;;13.78;48.68;99441.80;25057;1315;3070596;-59
2022/05/26 00:40:33;;;;;;;14.80;4.80;;;;;;;13.69;49.38;99442.29;25111;1315;3027046;-60
2022/05/26 00:43:03;;;;;;;12.40;4.60;;;;;;;13.67;49.37;99441.20;25125;1315;3051881;-61
2022/05/26 00:45:43;;;;;;;16.10;4.50;;;;;;;13.63;49.33;99440.11;25072;1315;3026564;-62
2022/05/26 00:48:14;;;;;;;10.50;4.20;;;;;;;13.69;49.08;99438.22;25116;1314;3051961;-65
2022/05/26 00:50:50;;;;;;;6.00;4.00;;;;;;;13.65;49.26;99436.23;25139;1315;3026540;-61
2022/05/26 00:53:27;;;;;;;17.20;4.80;;;;;;;13.64;49.00;99434.92;25109;1315;3055378;-61
2022/05/26 00:56:16;;;;;;;11.20;4.70;;;;;;;13.56;49.77;99433.58;25051;1317;3056681;-63
2022/05/26 00:58:48;;;;;;;21.40;4.70;;;;;;;13.60;49.41;99432.95;25069;1315;3048202;-61
2022/05/26 01:01:17;;;;;;;17.10;5.50;;;;;;;13.60;49.19;99430.80;25071;1315;3026988;-63
2022/05/26 01:03:52;;;;;;;11.60;5.10;;;;;;;13.51;49.91;99427.77;25102;1315;3026853;-64
2022/05/26 01:06:30;;;;;;;17.30;4.90;;;;;;;13.56;49.46;99428.44;25120;1316;3050362;-60
2022/05/26 01:09:04;;;;;;;18.20;4.60;;;;;;;13.46;49.76;99428.13;25130;1315;3052933;-59
2022/05/26 01:11:35;;;;;;;19.10;5.10;;;;;;;13.46;49.74;99428.64;25121;1315;3054076;-61
2022/05/26 01:14:12;;;;;;;15.20;4.30;;;;;;;13.43;49.99;99428.33;25049;1315;3026419;-61
2022/05/26 01:17:07;;;;;;;15.30;5.10;;;;;;;13.39;49.97;99424.92;25039;1315;3051221;-60
2022/05/26 01:19:58;;;;;;;13.00;4.60;;;;;;;13.19;50.70;99421.58;25150;1315;3055293;-60
2022/05/26 01:22:46;;;;;;;19.80;4.30;;;;;;;13.35;50.26;99423.83;25099;1318;3054719;-60
2022/05/26 01:25:49;;;;;;;12.70;4.20;;;;;;;13.31;50.34;99426.20;25207;1315;3058536;-60
2022/05/26 01:28:37;;;;;;;16.40;4.50;;;;;;;13.26;50.77;99420.08;25460;1315;3050089;-60
2022/05/26 01:31:26;;;;;;;19.00;4.60;;;;;;;13.19;51.29;99416.13;25506;1315;3053468;-60
2022/05/26 01:34:13;;;;;;;23.50;5.60;;;;;;;13.19;51.28;99416.82;25200;1315;3054466;-60
2022/05/26 01:36:58;;;;;;;13.30;5.10;;;;;;;13.04;52.11;99408.96;25072;1315;3071611;-62
2022/05/26 01:39:36;;;;;;;9.90;4.40;;;;;;;13.00;52.13;99405.58;25104;1318;3049384;-61
2022/05/26 01:42:21;;;;;;;16.60;4.20;;;;;;;13.03;52.10;99406.56;25104;1315;3052743;-62
2022/05/26 01:45:08;;;;;;;12.60;4.70;;;;;;;12.96;52.17;99404.61;25096;1315;3052006;-60
2022/05/26 01:48:02;;;;;;;13.40;4.50;;;;;;;12.96;52.23;99401.81;25013;1318;3057636;-63
2022/05/26 01:50:40;;;;;;;11.30;5.40;;;;;;;12.93;52.30;99401.52;25102;1315;3050193;-62
2022/05/26 01:53:18;;;;;;;12.90;4.30;;;;;;;12.79;53.03;99404.08;25058;1315;3055765;-64
2022/05/26 01:56:07;;;;;;;13.30;5.20;;;;;;;12.75;53.19;99400.29;25138;1315;3052790;-63
2022/05/26 01:58:44;;;;;;;15.30;4.30;;;;;;;12.69;53.60;99404.77;25014;1315;3071022;-62
2022/05/26 02:01:16;;;;;;;10.80;4.30;;;;;;;12.64;53.99;99400.56;25105;1318;3049123;-62
2022/05/26 02:03:46;;;;;;;17.70;5.50;;;;;;;12.66;53.76;99400.72;24990;1318;3026522;-62
2022/05/26 02:06:28;;;;;;;12.70;4.00;;;;;;;12.60;53.94;99399.76;25141;1315;3029082;-61
2022/05/26 02:09:26;;;;;;;17.90;4.30;;;;;;;12.64;53.68;99403.16;25119;1315;3058202;-62
2022/05/26 02:12:07;;;;;;;14.70;4.10;;;;;;;12.65;53.74;99402.08;25056;1315;3052786;-62
2022/05/26 02:14:40;;;;;;;19.20;6.60;;;;;;;12.71;53.66;99402.00;25053;1318;3053783;-61
2022/05/26 02:17:19;;;;;;;9.80;4.40;;;;;;;12.66;53.82;99404.64;25042;1319;3027027;-63
2022/05/26 02:19:52;;;;;;;8.70;4.10;;;;;;;12.69;53.75;99405.46;25046;1315;3073157;-62
2022/05/26 02:22:24;;;;;;;14.90;4.20;;;;;;;12.64;53.93;99406.84;25057;1316;3027785;-61
2022/05/26 02:25:07;;;;;;;15.00;4.70;;;;;;;12.56;54.05;99409.16;25123;1315;3028742;-62
2022/05/26 02:27:36;;;;;;;14.40;4.20;;;;;;;12.62;53.79;99418.11;25054;1315;3055122;-62
2022/05/26 02:30:09;;;;;;;15.40;4.00;;;;;;;12.66;53.52;99419.21;25067;1315;3026059;-61
2022/05/26 02:32:44;;;;;;;12.90;5.00;;;;;;;12.58;53.70;99411.48;25079;1318;3026916;-60
2022/05/26 02:35:18;;;;;;;9.00;3.70;;;;;;;12.65;53.27;99419.98;25041;1315;3051537;-61
2022/05/26 02:37:50;;;;;;;16.80;4.70;;;;;;;12.69;53.39;99418.61;25025;1315;3051027;-63
2022/05/26 02:40:19;;;;;;;12.00;4.10;;;;;;;12.60;53.68;99427.89;25120;1316;3026060;-63
2022/05/26 02:42:56;;;;;;;10.80;4.90;;;;;;;12.67;53.49;99430.04;25073;1315;3026975;-62
2022/05/26 02:45:50;;;;;;;10.40;4.10;;;;;;;12.64;53.44;99430.03;25090;1315;3054842;-62
2022/05/26 02:48:46;;;;;;;10.50;4.40;;;;;;;12.59;53.93;99430.23;25115;1316;3053291;-61
2022/05/26 02:51:18;;;;;;;13.20;4.10;;;;;;;12.57;53.82;99428.73;25083;1315;3059031;-61
2022/05/26 02:53:54;;;;;;;12.10;4.50;;;;;;;12.63;53.76;99431.37;25069;1316;3026844;-60
2022/05/26 02:56:57;;;;;;;11.90;4.40;;;;;;;12.64;53.62;99430.90;25126;1315;3052653;-61
2022/05/26 03:00:03;;;;;;;11.90;4.30;;;;;;;12.64;53.73;99428.65;25106;1318;3052617;-60
2022/05/26 03:02:39;;;;;;;14.30;5.30;;;;;;;12.58;54.17;99424.28;25009;1318;3071670;-62
2022/05/26 03:05:20;;;;;;;14.80;5.20;;;;;;;12.65;54.07;99421.04;25095;1318;3049233;-59
2022/05/26 03:07:52;;;;;;;15.20;4.80;;;;;;;12.68;54.07;99415.87;25126;1317;3050920;-64
2022/05/26 03:10:28;;;;;;;14.10;5.10;;;;;;;12.67;54.23;99417.70;25000;1316;3026633;-60
2022/05/26 03:12:59;;;;;;;13.30;5.20;;;;;;;12.68;54.37;99415.23;25106;1315;3059234;-60
2022/05/26 03:15:29;;;;;;;13.90;4.80;;;;;;;12.65;54.54;99418.61;25052;1315;3027995;-60
2022/05/26 03:18:00;;;;;;;9.50;4.90;;;;;;;12.66;54.56;99418.50;25081;1315;3026854;-61
2022/05/26 03:20:30;;;;;;;19.90;5.80;;;;;;;12.71;54.79;99413.60;25126;1313;3026883;-60
2022/05/26 03:22:59;;;;;;;14.90;5.00;;;;;;;12.67;55.06;99417.89;25109;1315;3026229;-63
2022/05/26 03:25:28;;;;;;;9.50;4.70;;;;;;;12.68;55.12;99417.48;25125;1318;3055327;-62
2022/05/26 03:27:58;;;;;;;11.80;4.90;;;;;;;12.73;55.12;99417.66;25128;1315;3026288;-60
2022/05/26 03:30:27;;;;;;;15.60;4.90;;;;;;;12.74;55.26;99413.73;25098;1316;3026632;-61
2022/05/26 03:32:56;;;;;;;13.10;5.00;;;;;;;12.78;54.98;99415.57;25109;1317;3054316;-59
2022/05/26 03:41:18;;;;;;;17.70;5.40;;;;;;;12.94;55.30;99425.67;24868;1321;3055833;-61
2022/05/26 03:43:49;;;;;;;15.10;5.20;;;;;;;13.02;55.21;99422.64;25070;1316;3027004;-61
2022/05/26 03:46:18;;;;;;;15.00;5.60;;;;;;;12.97;55.46;99422.11;25093;1316;3026664;-63
2022/05/26 03:48:47;;;;;;;16.80;5.30;;;;;;;12.94;56.08;99423.38;25103;1315;3026782;-62
2022/05/26 03:51:16;;;;;;;15.90;5.60;;;;;;;13.00;55.91;99418.90;25092;1315;3053724;-61
2022/05/26 03:53:45;;;;;;;12.90;5.50;;;;;;;13.06;55.93;99414.27;25079;1318;3026742;-65
2022/05/26 03:56:14;;;;;;;10.50;5.30;;;;;;;13.13;55.99;99411.88;25068;1316;3055426;-61
2022/05/26 03:58:44;;;;;;;18.50;5.30;;;;;;;13.20;56.02;99412.89;25149;1315;3026258;-61
2022/05/26 04:01:14;;;;;;;32.70;7.00;;;;;;;13.30;55.99;99406.09;25086;1315;3026540;-62
2022/05/26 04:03:44;;;;;;;14.00;5.70;;;;;;;13.35;56.18;99407.96;25073;1314;3028841;-62
2022/05/26 04:06:15;;;;;;;11.70;5.40;;;;;;;13.37;56.15;99404.71;25100;1315;3027181;-62
2022/05/26 04:08:44;;;;;;;11.30;5.40;;;;;;;13.38;56.73;99404.09;25079;1316;3068129;-60
2022/05/26 04:11:13;;;;;;;26.10;5.90;;;;;;;13.43;56.53;99396.14;25057;1315;3026708;-60
2022/05/26 04:13:42;;;;;;;15.70;5.70;;;;;;;13.50;56.72;99394.23;25068;1316;3051925;-62
2022/05/26 04:16:11;;;;;;;11.60;5.10;;;;;;;13.55;56.50;99398.45;25102;1316;3026373;-63
2022/05/26 04:18:41;;;;;;;15.40;5.20;;;;;;;13.57;56.71;99404.81;25072;1314;3055959;-63
2022/05/26 04:21:11;;;;;;;14.10;5.40;;;;;;;13.77;56.07;99387.14;25048;1318;3027992;-61
2022/05/26 04:23:40;;;;;;;10.20;5.00;;;;;;;13.83;56.00;99397.80;25047;1314;3026406;-62
2022/05/26 04:26:09;;;;;;;14.30;5.80;;;;;;;13.87;56.00;99393.98;25130;1315;3026125;-62
2022/05/26 04:28:38;;;;;;;12.90;5.70;;;;;;;13.90;56.27;99394.58;25123;1315;3051060;-62
2022/05/26 04:31:08;;;;;;;13.10;5.40;;;;;;;13.99;56.22;99397.06;25093;1315;3026433;-61
2022/05/26 04:33:37;;;;;;;13.10;5.60;;;;;;;14.05;56.29;99387.69;24756;1315;3433597;-62
2022/05/26 04:36:06;;;;;;;12.60;5.20;;;;;;;14.12;56.18;99377.99;25065;1317;3026568;-62
2022/05/26 04:38:36;;;;;;;16.60;5.20;;;;;;;14.22;55.96;99383.55;25101;1318;3027166;-64
2022/05/26 04:41:06;;;;;;;12.70;5.40;;;;;;;14.34;55.94;99383.70;25034;1315;3026880;-61
2022/05/26 04:43:38;;;;;;;15.50;5.40;;;;;;;14.49;55.61;99383.38;25097;1318;3050976;-63
2022/05/26 04:46:08;;;;;;;15.80;5.10;;;;;;;14.53;55.72;99387.17;25123;1316;3026739;-62
2022/05/26 04:48:38;;;;;;;19.30;5.50;;;;;;;14.61;55.75;99386.05;25096;1315;3027283;-64
2022/05/26 04:51:07;;;;;;;11.40;5.00;;;;;;;14.71;54.97;99383.31;25081;1315;3026122;-65
2022/05/26 04:53:36;;;;;;;11.60;5.00;;;;;;;14.77;55.25;99375.63;25143;1315;3071519;-63
2022/05/26 04:56:05;;;;;;;11.40;4.70;;;;;;;14.76;54.77;99380.22;25061;1315;3026369;-62
2022/05/26 04:58:34;;;;;;;9.30;5.10;;;;;;;14.87;54.33;99384.68;25081;1315;3054076;-63
2022/05/26 05:01:17;;;;;;;17.20;5.90;;;;;;;14.97;53.73;99385.79;25136;1315;3026058;-60
2022/05/26 05:03:47;;;;;;;17.90;5.90;;;;;;;14.98;53.52;99382.98;25058;1315;3054031;-62
2022/05/26 05:06:16;;;;;;;12.90;6.10;;;;;;;15.03;54.04;99379.70;25127;1315;3026511;-63
2022/05/26 05:08:45;;;;;;;11.40;5.00;;;;;;;15.18;54.15;99383.66;25129;1315;3029599;-60
2022/05/26 05:11:16;;;;;;;16.50;5.80;;;;;;;15.22;53.55;99383.61;25143;1315;3028233;-62
2022/05/26 05:13:45;;;;;;;13.50;5.70;;;;;;;15.30;52.68;99379.44;25144;1315;3026629;-63
2022/05/26 05:16:22;;;;;;;21.60;5.30;;;;;;;15.44;53.35;99372.90;25124;1315;3071058;-62
2022/05/26 05:18:51;;;;;;;15.00;6.10;;;;;;;15.50;53.12;99376.09;25084;1315;3051437;-63
2022/05/26 05:21:35;;;;;;;13.30;5.00;;;;;;;15.54;53.70;99379.48;25171;1315;3026621;-63
2022/05/26 05:24:08;;;;;;;13.00;5.20;;;;;;;15.68;53.58;99365.98;25133;1315;3055062;-62
2022/05/26 05:26:37;;;;;;;19.90;5.70;;;;;;;15.69;53.36;99370.23;25155;1315;3026670;-62
2022/05/26 05:29:10;;;;;;;20.00;6.10;;;;;;;15.72;53.79;99365.96;25121;1315;3026683;-63
2022/05/26 05:31:51;;;;;;;13.70;6.10;;;;;;;15.87;53.35;99373.42;25168;1315;3051828;-63
2022/05/26 05:34:33;;;;;;;12.20;5.50;;;;;;;16.04;52.94;99371.26;25042;1315;3057164;-63
2022/05/26 05:37:05;;;;;;;13.50;5.50;;;;;;;16.19;52.68;99368.09;25094;1317;3052017;-61
2022/05/26 05:39:35;;;;;;;14.20;5.50;;;;;;;16.31;52.28;99373.36;25037;1315;3026342;-64
2022/05/26 05:42:05;;;;;;;10.00;4.70;;;;;;;16.41;51.58;99375.54;25117;1315;3026401;-64
2022/05/26 05:44:34;;;;;;;20.80;5.60;;;;;;;16.51;50.91;99376.77;25118;1315;3026326;-62
2022/05/26 05:47:04;;;;;;;18.70;5.60;;;;;;;16.68;51.53;99359.95;25087;1315;3026207;-63
2022/05/26 05:49:34;;;;;;;16.50;6.30;;;;;;;16.68;51.12;99371.08;25041;1315;3026048;-60
2022/05/26 05:52:06;;;;;;;19.20;6.50;;;;;;;16.74;51.89;99360.69;25106;1315;3026910;-62
2022/05/26 05:54:35;;;;;;;18.80;6.40;;;;;;;16.99;51.38;99364.36;25106;1318;3027171;-62
2022/05/26 05:57:51;;;;;;;22.70;6.20;;;;;;;17.31;49.77;99358.30;31514;1319;3027221;-64
2022/05/26 06:00:20;;;;;;;24.50;7.90;;;;;;;17.54;48.05;99358.35;24987;1322;3026834;-64
2022/05/26 06:02:49;;;;;;;13.60;5.70;;;;;;;17.85;46.34;99363.48;24994;1319;3026618;-61
2022/05/26 06:05:18;;;;;;;17.30;5.80;;;;;;;17.60;44.49;99360.23;25007;1319;3048981;-61
2022/05/26 06:07:47;;;;;;;21.00;6.40;;;;;;;17.59;44.16;99350.08;24983;1319;3026444;-62
2022/05/26 06:10:17;;;;;;;17.00;5.40;;;;;;;17.67;43.46;99360.87;24800;1319;3296839;-63
2022/05/26 06:12:46;;;;;;;16.80;5.40;;;;;;;17.71;42.94;99353.81;25107;1318;3026882;-62
2022/05/26 06:15:15;;;;;;;16.30;5.90;;;;;;;17.80;43.01;99354.89;25134;1315;3053496;-63
2022/05/26 06:17:44;;;;;;;10.90;5.20;;;;;;;17.89;43.17;99349.23;25152;1316;3026802;-61
2022/05/26 06:20:17;;;;;;;21.30;6.60;;;;;;;18.09;42.81;99345.71;25059;1316;3026557;-64
2022/05/26 06:22:47;;;;;;;13.40;5.50;;;;;;;18.04;40.58;99351.27;25205;1316;3026466;-62
2022/05/26 06:25:17;;;;;;;16.70;5.30;;;;;;;18.08;39.76;99342.77;25411;1316;3026183;-63
2022/05/26 06:30:35;;;;;;;21.30;5.20;;;;;;;18.40;41.53;99331.98;25268;1316;3069083;-63
2022/05/26 06:38:43;;;;;;;13.90;4.90;;;;;;;18.44;38.39;99335.27;25116;1316;3070832;-64
2022/05/26 06:44:03;;;;;;;22.10;5.00;;;;;;;18.50;39.73;99326.00;25079;1316;3051953;-62
2022/05/26 06:46:57;;;;;;;17.30;5.30;;;;;;;18.60;38.65;99324.04;25126;1315;3052330;-60
2022/05/26 06:49:26;;;;;;;19.20;5.90;;;;;;;18.64;37.54;99334.15;25097;1316;3026254;-63
2022/05/26 06:51:55;;;;;;;11.80;5.20;;;;;;;18.70;38.01;99329.80;25219;1316;3053846;-62
2022/05/26 06:54:24;;;;;;;18.60;5.00;;;;;;;18.77;37.86;99330.91;25165;1315;3026431;-62
2022/05/26 06:56:53;;;;;;;20.60;4.60;;;;;;;18.92;38.32;99317.90;25157;1316;3048177;-62
2022/05/26 06:59:22;;;;;;;21.60;5.50;;;;;;;18.86;37.64;99336.05;25072;1313;3027239;-63
2022/05/26 07:01:51;;;;;;;15.10;4.60;;;;;;;18.83;37.71;99333.48;25119;1316;3069440;-63
2022/05/26 07:04:21;;;;;;;17.30;5.20;;;;;;;18.80;38.13;99341.09;25080;1316;3030430;-63
2022/05/26 07:06:51;;;;;;;11.60;4.70;;;;;;;18.86;38.34;99330.22;25154;1315;3051044;-61
2022/05/26 07:09:21;;;;;;;11.60;5.40;;;;;;;18.86;38.31;99323.67;25117;1316;3026604;-61
2022/05/26 07:11:50;;;;;;;9.70;5.20;;;;;;;18.92;37.99;99324.70;25081;1316;3026812;-61
2022/05/26 07:14:20;;;;;;;11.20;5.10;;;;;;;19.02;38.07;99311.97;25107;1316;3026384;-62
2022/05/26 07:16:49;;;;;;;10.60;4.90;;;;;;;19.34;38.20;99309.50;25100;1316;3028112;-62
2022/05/26 07:19:18;;;;;;;19.80;5.20;;;;;;;19.49;37.32;99311.42;25113;1316;3026282;-62
2022/05/26 07:21:49;;;;;;;23.10;4.90;;;;;;;19.50;36.19;99313.23;25117;1316;3051425;-66
2022/05/26 07:24:20;;;;;;;11.00;4.40;;;;;;;19.39;35.81;99320.20;25047;1316;3028578;-62
2022/05/26 07:26:50;;;;;;;7.70;3.50;;;;;;;19.28;35.54;99320.58;25128;1316;3026415;-62
2022/05/26 07:29:19;;;;;;;13.50;4.00;;;;;;;19.36;36.30;99320.30;25081;1316;3029980;-63
2022/05/26 07:31:48;;;;;;;8.80;3.70;;;;;;;19.53;35.87;99310.88;25132;1316;3054102;-60
2022/05/26 07:34:18;;;;;;;14.40;3.70;;;;;;;19.54;34.04;99303.29;25077;1316;3026664;-63
2022/05/26 07:42:24;;;;;;;18.50;3.60;;;;;;;19.87;31.39;99315.23;25179;1315;3058812;-62
2022/05/26 07:44:54;;;;;;;13.80;4.00;;;;;;;19.92;31.89;99308.52;25119;1315;3026549;-60
2022/05/26 07:47:27;;;;;;;16.60;3.60;;;;;;;20.07;32.50;99307.67;25170;1315;3027256;-62
2022/05/26 07:49:56;;;;;;;13.90;4.10;;;;;;;20.14;32.26;99304.31;25037;1315;3027507;-60
2022/05/26 07:52:25;;;;;;;9.70;3.80;;;;;;;20.16;32.40;99316.05;25109;1315;3026912;-58
2022/05/26 07:54:54;;;;;;;18.30;4.40;;;;;;;20.12;32.63;99330.83;25095;1315;3055244;-59
2022/05/26 07:57:25;;;;;;;10.70;4.40;;;;;;;19.97;33.28;99337.38;25227;1315;3030205;-62
2022/05/26 07:59:56;;;;;;;17.70;3.80;;;;;;;19.84;33.89;99325.85;25128;1315;3049223;-60
2022/05/26 08:02:28;;;;;;;18.30;4.40;;;;;;;19.65;34.82;99320.07;25113;1316;3029600;-63
2022/05/26 08:04:59;;;;;;;10.20;3.40;;;;;;;19.90;35.02;99303.10;25013;1316;3027700;-61
2022/05/26 08:07:31;;;;;;;23.80;4.00;;;;;;;19.92;35.40;99315.63;25003;1318;3026769;-60
2022/05/26 08:10:01;;;;;;;15.70;3.70;;;;;;;19.91;35.32;99316.52;25077;1316;3026605;-62
2022/05/26 08:12:33;;;;;;;14.30;4.70;;;;;;;19.72;35.64;99316.00;25184;1316;3027352;-63
2022/05/26 08:15:03;;;;;;;15.90;4.60;;;;;;;19.67;36.04;99316.71;25126;1314;3026669;-61
2022/05/26 08:17:32;;;;;;;16.10;4.70;;;;;;;19.71;36.40;99320.08;25140;1316;3049504;-61
2022/05/26 08:20:03;;;;;;;15.20;5.00;;;;;;;19.59;37.30;99320.88;25128;1315;3026331;-62
2022/05/26 08:22:35;;;;;;;19.30;6.30;;;;;;;19.52;37.38;99320.02;25095;1315;3071254;-64
2022/05/26 08:25:06;;;;;;;23.90;5.40;;;;;;;19.55;36.96;99320.20;24997;1315;3026460;-63
2022/05/26 08:27:40;;;;;;;;;;;;;;;19.51;34.89;99338.38;25038;1316;3051447;-63
2022/05/26 08:30:14;;;;;;;18.50;4.90;;;;;;;19.40;34.57;99333.30;25117;1315;3026105;-62
2022/05/26 08:32:46;;;;;;;28.60;4.00;;;;;;;19.47;34.51;99329.95;25047;1316;3058970;-60
2022/05/26 08:35:17;;;;;;;14.30;3.70;;;;;;;19.42;33.70;99349.04;25118;1315;3026492;-65
2022/05/26 08:37:46;;;;;;;14.40;4.40;;;;;;;19.37;33.37;99337.80;25049;1315;3027910;-62
2022/05/26 08:40:30;;;;;;;6.80;3.20;;;;;;;19.43;33.36;99343.77;25119;1315;3026356;-69
2022/05/26 08:42:59;;;;;;;19.40;3.40;;;;;;;19.43;33.22;99346.61;25079;1315;3050417;-64
2022/05/26 08:45:28;;;;;;;14.80;3.50;;;;;;;19.31;33.42;99346.91;25099;1315;3026635;-68
2022/05/26 08:47:57;;;;;;;14.10;3.50;;;;;;;19.32;33.05;99342.56;25118;1315;3058267;-67
2022/05/26 08:50:28;;;;;;;17.40;4.00;;;;;;;19.37;33.37;99344.19;25103;1315;3026234;-63
2022/05/26 08:53:00;;;;;;;21.20;3.80;;;;;;;19.35;33.89;99340.11;25130;1316;3053052;-65
2022/05/26 08:55:46;;;;;;;32.30;4.00;;;;;;;19.40;33.81;99341.98;25149;1315;3026458;-66
2022/05/26 08:58:20;;;;;;;13.10;3.80;;;;;;;19.35;33.40;99339.11;25116;1316;3050392;-66
2022/05/26 09:00:50;;;;;;;12.60;4.00;;;;;;;19.43;33.23;99336.71;25067;1315;3055795;-70
2022/05/26 09:03:36;;;;;;;14.80;3.30;;;;;;;19.54;32.49;99323.38;25161;1316;3026614;-67
2022/05/26 09:06:08;;;;;;;9.40;3.70;;;;;;;19.51;32.78;99329.75;25177;1316;3070741;-69
2022/05/26 09:14:34;;;;;;;12.20;3.60;;;;;;;19.41;34.62;99339.95;25076;1315;3054958;-66
2022/05/26 09:17:05;;;;;;;8.20;3.70;;;;;;;19.42;35.29;99341.59;25061;1315;3058475;-65
2022/05/26 09:19:43;;;;;;;12.80;4.00;;;;;;;19.30;35.49;99331.58;25063;1312;3027538;-65
2022/05/26 09:22:25;;;;;;;15.90;3.70;;;;;;;19.30;35.73;99324.46;25161;1312;3055525;-66
2022/05/26 09:24:56;;;;;;;18.50;4.10;;;;;;;19.40;36.05;99314.24;25115;1313;3053607;-66
2022/05/26 09:27:30;;;;;;;17.60;3.90;;;;;;;19.53;35.90;99313.88;25135;1312;3026714;-70
2022/05/26 09:30:26;;;;;;;18.70;3.80;;;;;;;19.46;36.30;99306.77;25131;1312;3048801;-65
2022/05/26 09:32:56;;;;;;;17.60;3.40;;;;;;;19.49;36.70;99292.77;25131;1312;3055147;-69
2022/05/26 09:35:30;;;;;;;10.70;3.90;;;;;;;19.44;36.44;99308.19;25161;1312;3027206;-69
2022/05/26 09:38:03;;;;;;;15.10;4.60;;;;;;;19.43;36.56;99293.16;25217;1312;3048239;-69
2022/05/26 09:40:34;;;;;;;17.20;4.20;;;;;;;19.39;35.96;99282.91;25175;1312;3051821;-69
2022/05/26 09:43:09;;;;;;;16.10;3.90;;;;;;;19.47;35.61;99285.14;25195;1313;3026829;-70
2022/05/26 09:45:47;;;;;;;13.60;3.50;;;;;;;19.51;35.36;99287.27;25140;1312;3056907;-65
2022/05/26 09:48:19;;;;;;;16.30;3.80;;;;;;;19.54;35.42;99281.41;25148;1313;3052313;-65
2022/05/26 09:50:50;;;;;;;16.20;4.10;;;;;;;19.62;34.94;99276.37;25117;1312;3026774;-68
2022/05/26 09:53:33;;;;;;;15.10;3.60;;;;;;;19.52;34.56;99272.81;25209;1312;3030142;-64
2022/05/26 09:56:03;;;;;;;12.40;3.40;;;;;;;19.53;33.87;99277.98;25045;1313;3073062;-66
2022/05/26 09:58:39;;;;;;;9.30;3.20;;;;;;;19.51;34.32;99273.90;25097;1312;3026489;-65
2022/05/26 10:01:23;;;;;;;20.90;4.30;;;;;;;19.49;34.38;99271.68;25072;1312;3055025;-61
2022/05/26 10:04:30;;;;;;;9.00;3.50;;;;;;;19.51;34.06;99272.64;25126;1313;3053221;-62
2022/05/26 10:07:02;;;;;;;13.30;4.90;;;;;;;19.48;34.45;99265.88;25178;1312;3058913;-64
2022/05/26 10:09:48;;;;;;;12.50;4.60;;;;;;;19.50;34.54;99272.41;25110;1313;3027271;-63
2022/05/26 10:12:34;;;;;;;15.60;3.80;;;;;;;19.42;34.45;99271.48;25094;1312;3053109;-65
2022/05/26 10:15:26;;;;;;;17.00;3.90;;;;;;;19.44;34.46;99275.33;25056;1312;3054423;-63
2022/05/26 10:18:29;;;;;;;16.10;3.80;;;;;;;19.36;34.70;99269.16;25108;1313;3071647;-64
2022/05/26 10:21:16;;;;;;;16.50;3.90;;;;;;;19.37;34.79;99267.20;25173;1313;3049289;-63
2022/05/26 10:24:07;;;;;;;14.20;4.00;;;;;;;19.25;35.31;99263.58;25201;1312;3051922;-65
2022/05/26 10:27:24;;;;;;;14.10;4.60;;;;;;;19.25;35.79;99255.77;25126;1312;3056409;-63
2022/05/26 10:29:56;;;;;;;13.80;4.00;;;;;;;19.21;36.72;99268.23;25118;1313;3059066;-63
2022/05/26 10:32:49;;;;;;;19.90;4.00;;;;;;;19.19;37.46;99266.16;25104;1312;3052936;-64
2022/05/26 10:35:43;;;;;;;12.50;4.10;;;;;;;19.03;38.22;99265.95;25072;1312;3052446;-65
2022/05/26 10:38:34;;;;;;;23.70;4.40;;;;;;;18.70;40.48;99272.80;25154;1312;3051050;-62
2022/05/26 10:41:27;;;;;;;15.40;4.90;;;;;;;18.58;42.09;99240.27;25133;1312;3071402;-66
2022/05/26 10:44:26;;;;;;;11.00;4.40;;;;;;;18.50;42.57;99235.27;25172;1313;3049700;-61
2022/05/26 10:47:09;;;;;;;20.30;6.00;;;;;;;18.45;42.28;99238.02;25187;1312;3052728;-63
2022/05/26 10:49:44;;;;;;;22.30;5.40;;;;;;;18.40;43.81;99234.23;25167;1313;3052266;-62
2022/05/26 10:52:17;;;;;;;20.80;6.40;;;;;;;18.39;45.73;99229.19;25259;1312;3026677;-62
2022/05/26 10:54:49;;;;;;;17.30;5.50;;;;;;;18.13;46.32;99250.10;25524;1312;3049928;-59
2022/05/26 10:57:39;;;;;;;12.70;5.60;;;;;;;17.99;46.83;99234.56;25609;1312;3026826;-60
2022/05/26 11:00:14;;;;;;;17.50;5.30;;;;;;;17.66;48.86;99245.13;25213;1312;3051515;-65
2022/05/26 11:02:57;;;;;;;14.20;5.20;;;;;;;17.39;50.56;99253.50;25124;1312;3070054;-61
2022/05/26 11:06:03;;;;;;;13.90;5.00;;;;;;;17.03;52.99;99256.00;25164;1313;3049800;-62
2022/05/26 11:08:42;;;;;;;8.70;4.10;;;;;;;16.63;54.17;99268.64;25169;1312;3055403;-63
2022/05/26 11:11:24;;;;;;;11.60;4.20;;;;;;;16.35;55.42;99277.25;25190;1312;3053285;-62
2022/05/26 11:14:02;;;;;;;11.90;4.50;;;;;;;16.24;56.37;99282.96;25048;1316;3059219;-65
2022/05/26 11:19:38;;;;;;;6.20;3.70;;;;;;;15.74;55.92;99292.52;25113;1315;3056058;-66
2022/05/26 11:22:07;;;;;;;9.30;3.10;;;;;;;15.33;57.04;99283.77;25026;1315;3054811;-63
2022/05/26 11:24:36;;;;;;;11.90;3.40;;;;;;;15.27;56.32;99277.38;25100;1315;3026496;-65
2022/05/26 11:27:22;;;;;;;9.60;3.20;;;;;;;15.09;58.76;99286.81;25054;1315;3054950;-60
2022/05/26 11:30:06;;;;;;;7.30;3.40;;;;;;;15.09;58.74;99283.25;25073;1315;3054107;-63
2022/05/26 11:38:21;;;;;;;7.20;3.50;;;;;;;14.94;58.17;99284.15;25088;1313;3054542;-65
2022/05/26 11:41:15;;;;;;;10.20;3.80;;;;;;;14.99;57.85;99290.99;25098;1316;3026271;-64
2022/05/26 11:43:57;;;;;;;11.10;4.30;;;;;;;15.00;59.67;99286.98;25122;1312;3057226;-64
2022/05/26 11:46:41;;;;;;;12.70;4.20;;;;;;;15.01;60.54;99291.16;25100;1315;3049979;-66
2022/05/26 11:49:11;;;;;;;;;;;;;;;15.02;61.41;99294.11;25098;1313;3052716;-67
2022/05/26 11:51:42;;;;;;;13.00;5.00;;;;;;;15.02;61.34;99300.96;25205;1313;3026488;-63
2022/05/26 11:54:50;;;;;;;14.40;4.90;;;;;;;15.09;61.23;99298.29;25098;1313;3028561;-65
2022/05/26 11:57:33;;;;;;;17.50;5.30;;;;;;;15.07;62.02;99300.41;25142;1312;3051388;-63
2022/05/26 12:00:14;;;;;;;11.90;5.20;;;;;;;14.97;62.20;99304.67;25104;1315;3054428;-63
2022/05/26 12:02:47;;;;;;;10.40;3.70;;;;;;;14.96;62.92;99311.18;25162;1312;3053399;-66
2022/05/26 12:05:28;;;;;;;13.60;5.00;;;;;;;14.90;63.35;99316.73;25057;1312;3026510;-62
2022/05/26 12:08:00;;;;;;;11.30;4.90;;;;;;;14.84;63.65;99324.81;25092;1316;3052246;-62
2022/05/26 12:10:38;;;;;;;11.30;4.50;;;;;;;14.85;63.67;99321.89;25116;1312;3027116;-65
2022/05/26 12:13:19;;;;;;;9.80;5.10;;;;;;;14.79;63.99;99323.76;25048;1316;3050896;-64
2022/05/26 12:16:05;;;;;;;10.50;4.60;;;;;;;14.79;64.46;99330.84;25034;1316;3067786;-66
2022/05/26 12:19:07;;;;;;;12.30;4.70;;;;;;;14.74;64.69;99327.34;25143;1313;3052083;-62
2022/05/26 12:21:42;;;;;;;8.90;4.10;;;;;;;14.70;64.65;99339.28;25137;1315;3052342;-68
2022/05/26 12:24:33;;;;;;;8.40;3.80;;;;;;;14.59;65.35;99324.12;25060;1312;3029443;-66